sensor_id;sensor_type;location;lat;lon;timestamp;pressure;altitude;pressure_sealevel;temperature;humidity
61906;BME280;47863;55.766;37.672;2024-03-08T00:01:31;99928.63;;;-2.81;36.07
61906;BME280;47863;55.766;37.672;2024-03-08T00:03:57;99957.56;;;-2.65;35.98
61906;BME280;47863;55.766;37.672;2024-03-08T00:06:22;99961.84;;;-2.63;35.77
61906;BME280;47863;55.766;37.672;2024-03-08T00:08:48;99952.28;;;-2.64;35.76
61906;BME280;47863;55.766;37.672;2024-03-08T00:11:13;99951.56;;;-2.67;36.01
61906;BME280;47863;55.766;37.672;2024-03-08T00:13:39;99937.84;;;-2.72;36.04
61906;BME280;47863;55.766;37.672;2024-03-08T00:16:05;99902.34;;;-2.99;36.57
61906;BME280;47863;55.766;37.672;2024-03-08T00:18:31;99928.13;;;-2.89;36.66
61906;BME280;47863;55.766;37.672;2024-03-08T00:20:56;99932.94;;;-2.80;36.36
61906;BME280;47863;55.766;37.672;2024-03-08T00:23:22;99927.91;;;-2.85;36.87
61906;BME280;47863;55.766;37.672;2024-03-08T00:25:48;99922.25;;;-2.94;36.35
61906;BME280;47863;55.766;37.672;2024-03-08T00:28:14;99890.25;;;-3.20;36.75
61906;BME280;47863;55.766;37.672;2024-03-08T00:30:42;99926.59;;;-2.93;37.08
61906;BME280;47863;55.766;37.672;2024-03-08T00:33:08;99894.38;;;-3.14;36.95
61906;BME280;47863;55.766;37.672;2024-03-08T00:35:34;99915.75;;;-3.05;36.59
61906;BME280;47863;55.766;37.672;2024-03-08T00:38:00;99879.28;;;-3.28;36.51
61906;BME280;47863;55.766;37.672;2024-03-08T00:40:25;99869.75;;;-3.29;36.59
61906;BME280;47863;55.766;37.672;2024-03-08T00:42:51;99893.28;;;-3.10;36.89
61906;BME280;47863;55.766;37.672;2024-03-08T00:45:18;99900.38;;;-2.93;36.72
61906;BME280;47863;55.766;37.672;2024-03-08T00:47:44;99896.38;;;-2.83;36.50
61906;BME280;47863;55.766;37.672;2024-03-08T00:50:10;99878.75;;;-2.80;36.53
61906;BME280;47863;55.766;37.672;2024-03-08T00:52:36;99883.25;;;-2.64;37.08
61906;BME280;47863;55.766;37.672;2024-03-08T00:55:02;99889.88;;;-2.57;37.18
61906;BME280;47863;55.766;37.672;2024-03-08T00:57:29;99878.09;;;-2.48;37.45
61906;BME280;47863;55.766;37.672;2024-03-08T00:59:55;99870.69;;;-2.40;37.55
61906;BME280;47863;55.766;37.672;2024-03-08T01:02:21;99839.59;;;-2.48;37.35
61906;BME280;47863;55.766;37.672;2024-03-08T01:04:48;99812.91;;;-2.56;37.32
61906;BME280;47863;55.766;37.672;2024-03-08T01:07:14;99865.06;;;-2.15;37.28
61906;BME280;47863;55.766;37.672;2024-03-08T01:09:41;99862.88;;;-2.07;37.08
61906;BME280;47863;55.766;37.672;2024-03-08T01:12:06;99838.69;;;-2.13;37.26
61906;BME280;47863;55.766;37.672;2024-03-08T01:14:33;99860.00;;;-2.02;37.21
61906;BME280;47863;55.766;37.672;2024-03-08T01:16:59;99865.25;;;-2.02;37.21
61906;BME280;47863;55.766;37.672;2024-03-08T01:19:25;99870.50;;;-2.02;37.34
61906;BME280;47863;55.766;37.672;2024-03-08T01:21:51;99855.22;;;-2.11;37.28
61906;BME280;47863;55.766;37.672;2024-03-08T01:24:16;99868.19;;;-2.08;37.63
61906;BME280;47863;55.766;37.672;2024-03-08T01:26:42;99864.19;;;-2.15;37.40
61906;BME280;47863;55.766;37.672;2024-03-08T01:29:08;99862.88;;;-2.24;37.66
61906;BME280;47863;55.766;37.672;2024-03-08T01:31:34;99858.94;;;-2.15;37.75
61906;BME280;47863;55.766;37.672;2024-03-08T01:34:01;99862.03;;;-2.07;37.55
61906;BME280;47863;55.766;37.672;2024-03-08T01:36:27;99863.06;;;-1.94;37.98
61906;BME280;47863;55.766;37.672;2024-03-08T01:38:53;99829.88;;;-1.95;37.55
61906;BME280;47863;55.766;37.672;2024-03-08T01:41:19;99843.34;;;-1.68;37.78
61906;BME280;47863;55.766;37.672;2024-03-08T01:43:45;99817.47;;;-1.75;38.07
61906;BME280;47863;55.766;37.672;2024-03-08T01:46:13;99841.50;;;-1.50;37.78
61906;BME280;47863;55.766;37.672;2024-03-08T01:48:42;99778.91;;;-1.91;37.74
61906;BME280;47863;55.766;37.672;2024-03-08T01:51:08;99837.31;;;-1.70;37.82
61906;BME280;47863;55.766;37.672;2024-03-08T01:53:35;99850.94;;;-1.79;38.38
61906;BME280;47863;55.766;37.672;2024-03-08T01:56:01;99851.03;;;-1.98;38.62
61906;BME280;47863;55.766;37.672;2024-03-08T01:58:29;99834.78;;;-2.22;38.84
61906;BME280;47863;55.766;37.672;2024-03-08T02:00:57;99851.56;;;-2.25;38.83
61906;BME280;47863;55.766;37.672;2024-03-08T02:03:25;99846.00;;;-2.36;38.66
61906;BME280;47863;55.766;37.672;2024-03-08T02:05:51;99828.72;;;-2.57;39.07
61906;BME280;47863;55.766;37.672;2024-03-08T02:08:18;99835.66;;;-2.56;38.96
61906;BME280;47863;55.766;37.672;2024-03-08T02:10:44;99826.53;;;-2.67;39.06
61906;BME280;47863;55.766;37.672;2024-03-08T02:13:11;99835.66;;;-2.74;38.74
61906;BME280;47863;55.766;37.672;2024-03-08T02:15:56;99826.25;;;-2.78;39.16
61906;BME280;47863;55.766;37.672;2024-03-08T02:18:42;99821.38;;;-2.86;38.94
61906;BME280;47863;55.766;37.672;2024-03-08T02:21:08;99830.38;;;-2.91;39.06
61906;BME280;47863;55.766;37.672;2024-03-08T02:23:36;99753.44;;;-3.44;38.64
61906;BME280;47863;55.766;37.672;2024-03-08T02:26:03;99823.91;;;-3.02;38.93
61906;BME280;47863;55.766;37.672;2024-03-08T02:28:30;99825.50;;;-2.99;38.94
61906;BME280;47863;55.766;37.672;2024-03-08T02:30:56;99816.31;;;-3.08;38.66
61906;BME280;47863;55.766;37.672;2024-03-08T02:33:23;99825.44;;;-2.97;38.96
61906;BME280;47863;55.766;37.672;2024-03-08T02:35:49;99824.03;;;-3.05;38.98
61906;BME280;47863;55.766;37.672;2024-03-08T02:38:18;99827.59;;;-3.06;39.32
61906;BME280;47863;55.766;37.672;2024-03-08T02:40:46;99793.78;;;-3.29;38.83
61906;BME280;47863;55.766;37.672;2024-03-08T02:43:13;99835.16;;;-3.00;38.91
61906;BME280;47863;55.766;37.672;2024-03-08T02:45:40;99823.34;;;-2.91;38.58
61906;BME280;47863;55.766;37.672;2024-03-08T02:48:07;99826.13;;;-2.76;39.09
61906;BME280;47863;55.766;37.672;2024-03-08T02:50:33;99811.03;;;-2.71;38.48
61906;BME280;47863;55.766;37.672;2024-03-08T02:53:03;99793.69;;;-2.74;38.60
61906;BME280;47863;55.766;37.672;2024-03-08T02:55:29;99737.78;;;-3.09;38.94
61906;BME280;47863;55.766;37.672;2024-03-08T02:57:56;99794.44;;;-2.89;38.84
61906;BME280;47863;55.766;37.672;2024-03-08T03:00:22;99793.22;;;-3.00;38.56
61906;BME280;47863;55.766;37.672;2024-03-08T03:02:52;99771.81;;;-3.27;38.85
61906;BME280;47863;55.766;37.672;2024-03-08T03:05:20;99771.34;;;-3.35;39.05
61906;BME280;47863;55.766;37.672;2024-03-08T03:07:46;99792.78;;;-3.27;39.51
61906;BME280;47863;55.766;37.672;2024-03-08T03:10:11;99803.78;;;-3.37;39.82
61906;BME280;47863;55.766;37.672;2024-03-08T03:12:43;99798.59;;;-3.39;39.60
61906;BME280;47863;55.766;37.672;2024-03-08T03:15:11;99748.66;;;-3.72;39.94
61906;BME280;47863;55.766;37.672;2024-03-08T03:17:37;99778.00;;;-3.66;39.74
61906;BME280;47863;55.766;37.672;2024-03-08T03:20:05;99800.59;;;-3.63;39.71
61906;BME280;47863;55.766;37.672;2024-03-08T03:22:36;99793.88;;;-3.69;39.61
61906;BME280;47863;55.766;37.672;2024-03-08T03:25:03;99789.78;;;-3.74;39.59
61906;BME280;47863;55.766;37.672;2024-03-08T03:27:30;99786.16;;;-3.72;39.76
61906;BME280;47863;55.766;37.672;2024-03-08T03:29:58;99774.56;;;-3.66;39.32
61906;BME280;47863;55.766;37.672;2024-03-08T03:32:24;99656.34;;;-4.12;39.59
61906;BME280;47863;55.766;37.672;2024-03-08T03:34:49;99764.25;;;-3.33;39.34
61906;BME280;47863;55.766;37.672;2024-03-08T03:37:21;99754.88;;;-3.20;38.78
61906;BME280;47863;55.766;37.672;2024-03-08T03:39:46;99765.94;;;-2.95;38.90
61906;BME280;47863;55.766;37.672;2024-03-08T03:42:18;99761.78;;;-2.82;38.56
61906;BME280;47863;55.766;37.672;2024-03-08T03:44:45;99775.94;;;-2.69;39.00
61906;BME280;47863;55.766;37.672;2024-03-08T03:47:11;99771.00;;;-2.57;38.71
61906;BME280;47863;55.766;37.672;2024-03-08T03:49:36;99773.56;;;-2.56;38.44
61906;BME280;47863;55.766;37.672;2024-03-08T03:52:02;99739.56;;;-2.75;38.79
61906;BME280;47863;55.766;37.672;2024-03-08T03:54:30;99727.53;;;-2.79;38.90
61906;BME280;47863;55.766;37.672;2024-03-08T03:56:56;99761.69;;;-2.63;38.83
61906;BME280;47863;55.766;37.672;2024-03-08T03:59:22;99736.16;;;-2.77;39.49
61906;BME280;47863;55.766;37.672;2024-03-08T04:01:47;99767.94;;;-2.66;40.48
61906;BME280;47863;55.766;37.672;2024-03-08T04:04:15;99770.31;;;-2.79;40.79
61906;BME280;47863;55.766;37.672;2024-03-08T04:06:41;99760.75;;;-2.80;41.49
61906;BME280;47863;55.766;37.672;2024-03-08T04:09:07;99761.16;;;-2.87;41.16
61906;BME280;47863;55.766;37.672;2024-03-08T04:11:33;99756.84;;;-2.88;40.89
61906;BME280;47863;55.766;37.672;2024-03-08T04:13:58;99746.97;;;-2.83;41.28
61906;BME280;47863;55.766;37.672;2024-03-08T04:16:24;99740.72;;;-2.81;40.70
61906;BME280;47863;55.766;37.672;2024-03-08T04:18:51;99742.16;;;-2.75;41.02
61906;BME280;47863;55.766;37.672;2024-03-08T04:21:17;99725.41;;;-2.88;40.88
61906;BME280;47863;55.766;37.672;2024-03-08T04:23:44;99745.66;;;-2.74;40.74
61906;BME280;47863;55.766;37.672;2024-03-08T04:26:11;99710.13;;;-2.97;42.11
61906;BME280;47863;55.766;37.672;2024-03-08T04:28:36;99723.63;;;-2.88;41.54
61906;BME280;47863;55.766;37.672;2024-03-08T04:31:05;99708.88;;;-2.90;42.02
61906;BME280;47863;55.766;37.672;2024-03-08T04:33:32;99748.88;;;-2.69;41.71
61906;BME280;47863;55.766;37.672;2024-03-08T04:36:01;99731.94;;;-2.80;41.44
61906;BME280;47863;55.766;37.672;2024-03-08T04:38:30;99704.81;;;-2.96;41.66
61906;BME280;47863;55.766;37.672;2024-03-08T04:40:57;99724.13;;;-2.81;41.78
61906;BME280;47863;55.766;37.672;2024-03-08T04:43:23;99738.84;;;-2.61;41.60
61906;BME280;47863;55.766;37.672;2024-03-08T04:45:52;99683.22;;;-2.84;41.44
61906;BME280;47863;55.766;37.672;2024-03-08T04:48:19;99733.00;;;-2.49;41.30
61906;BME280;47863;55.766;37.672;2024-03-08T04:50:46;99737.50;;;-2.35;40.97
61906;BME280;47863;55.766;37.672;2024-03-08T04:53:11;99737.34;;;-2.32;40.91
61906;BME280;47863;55.766;37.672;2024-03-08T04:55:37;99736.44;;;-2.31;40.85
61906;BME280;47863;55.766;37.672;2024-03-08T04:58:03;99718.47;;;-2.38;41.14
61906;BME280;47863;55.766;37.672;2024-03-08T05:00:32;99736.44;;;-2.31;41.03
61906;BME280;47863;55.766;37.672;2024-03-08T05:02:58;99725.94;;;-2.31;41.15
61906;BME280;47863;55.766;37.672;2024-03-08T05:05:24;99708.13;;;-2.42;41.18
61906;BME280;47863;55.766;37.672;2024-03-08T05:07:51;99726.78;;;-2.30;40.88
61906;BME280;47863;55.766;37.672;2024-03-08T05:10:17;99722.34;;;-2.30;41.02
61906;BME280;47863;55.766;37.672;2024-03-08T05:12:44;99716.34;;;-2.32;41.31
61906;BME280;47863;55.766;37.672;2024-03-08T05:15:10;99687.19;;;-2.43;41.38
61906;BME280;47863;55.766;37.672;2024-03-08T05:17:36;99681.81;;;-2.40;41.42
61906;BME280;47863;55.766;37.672;2024-03-08T05:20:02;99707.31;;;-2.10;41.57
61906;BME280;47863;55.766;37.672;2024-03-08T05:22:29;99697.94;;;-2.14;41.79
61906;BME280;47863;55.766;37.672;2024-03-08T05:24:55;99702.34;;;-1.99;41.93
61906;BME280;47863;55.766;37.672;2024-03-08T05:27:20;99692.84;;;-1.86;41.47
61906;BME280;47863;55.766;37.672;2024-03-08T05:29:46;99667.97;;;-1.94;41.18
61906;BME280;47863;55.766;37.672;2024-03-08T05:32:12;99716.06;;;-1.62;41.47
61906;BME280;47863;55.766;37.672;2024-03-08T05:34:38;99676.03;;;-1.82;41.23
61906;BME280;47863;55.766;37.672;2024-03-08T05:37:04;99715.06;;;-1.60;41.64
61906;BME280;47863;55.766;37.672;2024-03-08T05:39:29;99658.16;;;-1.91;41.73
61906;BME280;47863;55.766;37.672;2024-03-08T05:41:55;99696.34;;;-1.69;41.54
61906;BME280;47863;55.766;37.672;2024-03-08T05:44:21;99713.19;;;-1.57;41.90
61906;BME280;47863;55.766;37.672;2024-03-08T05:46:47;99708.44;;;-1.51;41.63
61906;BME280;47863;55.766;37.672;2024-03-08T05:49:13;99710.63;;;-1.43;41.71
61906;BME280;47863;55.766;37.672;2024-03-08T05:51:40;99685.38;;;-1.46;41.66
61906;BME280;47863;55.766;37.672;2024-03-08T05:54:12;99703.03;;;-1.17;41.40
61906;BME280;47863;55.766;37.672;2024-03-08T05:56:38;99698.16;;;-1.09;41.25
61906;BME280;47863;55.766;37.672;2024-03-08T05:59:06;99667.72;;;-1.28;41.13
61906;BME280;47863;55.766;37.672;2024-03-08T06:01:31;99685.22;;;-1.12;41.10
61906;BME280;47863;55.766;37.672;2024-03-08T06:03:58;99713.72;;;-0.90;41.47
61906;BME280;47863;55.766;37.672;2024-03-08T06:06:24;99714.97;;;-0.82;41.50
61906;BME280;47863;55.766;37.672;2024-03-08T06:08:50;99698.72;;;-0.74;41.91
61906;BME280;47863;55.766;37.672;2024-03-08T06:11:17;99654.84;;;-0.88;41.76
61906;BME280;47863;55.766;37.672;2024-03-08T06:13:44;99696.69;;;-0.54;41.27
61906;BME280;47863;55.766;37.672;2024-03-08T06:16:10;99682.03;;;-0.58;41.48
61906;BME280;47863;55.766;37.672;2024-03-08T06:18:36;99703.06;;;-0.44;41.52
61906;BME280;47863;55.766;37.672;2024-03-08T06:21:08;99673.75;;;-0.52;41.54
61906;BME280;47863;55.766;37.672;2024-03-08T06:23:37;99698.84;;;-0.32;41.55
61906;BME280;47863;55.766;37.672;2024-03-08T06:26:06;99701.56;;;-0.34;41.77
61906;BME280;47863;55.766;37.672;2024-03-08T06:28:32;99690.28;;;-0.36;42.08
61906;BME280;47863;55.766;37.672;2024-03-08T06:31:01;99672.75;;;-0.35;42.56
61906;BME280;47863;55.766;37.672;2024-03-08T06:33:28;99705.25;;;-0.08;42.05
61906;BME280;47863;55.766;37.672;2024-03-08T06:35:54;99700.88;;;0.06;41.73
61906;BME280;47863;55.766;37.672;2024-03-08T06:38:25;99670.25;;;0.05;41.97
61906;BME280;47863;55.766;37.672;2024-03-08T06:40:51;99661.94;;;0.11;41.75
61906;BME280;47863;55.766;37.672;2024-03-08T06:43:17;99669.28;;;0.20;41.86
61906;BME280;47863;55.766;37.672;2024-03-08T06:45:44;99687.25;;;0.41;41.90
61906;BME280;47863;55.766;37.672;2024-03-08T06:48:18;99688.66;;;0.46;41.67
61906;BME280;47863;55.766;37.672;2024-03-08T06:50:47;99672.94;;;0.45;41.98
61906;BME280;47863;55.766;37.672;2024-03-08T06:53:13;99687.13;;;0.56;42.28
61906;BME280;47863;55.766;37.672;2024-03-08T06:55:42;99648.88;;;0.36;42.17
61906;BME280;47863;55.766;37.672;2024-03-08T06:58:07;99671.88;;;0.47;42.54
61906;BME280;47863;55.766;37.672;2024-03-08T07:00:33;99659.34;;;0.38;42.26
61906;BME280;47863;55.766;37.672;2024-03-08T07:02:59;99664.72;;;0.49;42.74
61906;BME280;47863;55.766;37.672;2024-03-08T07:05:27;99688.84;;;0.70;42.61
61906;BME280;47863;55.766;37.672;2024-03-08T07:07:53;99663.94;;;0.62;42.52
61906;BME280;47863;55.766;37.672;2024-03-08T07:10:23;99688.91;;;0.83;42.86
61906;BME280;47863;55.766;37.672;2024-03-08T07:12:51;99695.44;;;0.90;42.45
61906;BME280;47863;55.766;37.672;2024-03-08T07:15:17;99655.78;;;0.79;42.52
61906;BME280;47863;55.766;37.672;2024-03-08T07:17:45;99678.59;;;1.06;42.71
61906;BME280;47863;55.766;37.672;2024-03-08T07:20:13;99677.75;;;1.18;42.69
61906;BME280;47863;55.766;37.672;2024-03-08T07:22:39;99679.03;;;1.25;42.39
61906;BME280;47863;55.766;37.672;2024-03-08T07:25:05;99690.47;;;1.38;42.55
61906;BME280;47863;55.766;37.672;2024-03-08T07:27:44;99677.25;;;1.38;42.60
61906;BME280;47863;55.766;37.672;2024-03-08T07:30:10;99689.81;;;1.48;42.42
61906;BME280;47863;55.766;37.672;2024-03-08T07:32:35;99683.34;;;1.52;42.27
61906;BME280;47863;55.766;37.672;2024-03-08T07:35:01;99696.13;;;1.71;42.47
61906;BME280;47863;55.766;37.672;2024-03-08T07:37:29;99662.78;;;1.57;42.27
61906;BME280;47863;55.766;37.672;2024-03-08T07:39:54;99691.25;;;1.90;42.30
61906;BME280;47863;55.766;37.672;2024-03-08T07:42:20;99683.00;;;1.95;42.61
61906;BME280;47863;55.766;37.672;2024-03-08T07:44:47;99695.22;;;2.09;42.82
61906;BME280;47863;55.766;37.672;2024-03-08T07:47:13;99690.22;;;2.30;42.65
61906;BME280;47863;55.766;37.672;2024-03-08T07:49:39;99679.28;;;2.58;42.52
61906;BME280;47863;55.766;37.672;2024-03-08T07:52:05;99678.72;;;2.66;42.94
61906;BME280;47863;55.766;37.672;2024-03-08T07:54:33;99646.28;;;2.64;42.92
61906;BME280;47863;55.766;37.672;2024-03-08T07:56:59;99672.41;;;3.04;42.49
61906;BME280;47863;55.766;37.672;2024-03-08T07:59:25;99591.13;;;2.71;42.34
61906;BME280;47863;55.766;37.672;2024-03-08T08:01:50;99634.31;;;3.18;42.01
61906;BME280;47863;55.766;37.672;2024-03-08T08:04:16;99674.66;;;3.55;42.65
61906;BME280;47863;55.766;37.672;2024-03-08T08:06:43;99677.53;;;3.75;42.29
61906;BME280;47863;55.766;37.672;2024-03-08T08:09:09;99648.06;;;3.68;42.57
61906;BME280;47863;55.766;37.672;2024-03-08T08:11:47;99649.75;;;3.69;42.60
61906;BME280;47863;55.766;37.672;2024-03-08T08:14:13;99675.03;;;3.73;42.57
61906;BME280;47863;55.766;37.672;2024-03-08T08:16:39;99641.31;;;3.42;42.81
61906;BME280;47863;55.766;37.672;2024-03-08T08:19:08;99625.75;;;3.14;43.28
61906;BME280;47863;55.766;37.672;2024-03-08T08:21:36;99654.50;;;3.19;43.99
61906;BME280;47863;55.766;37.672;2024-03-08T08:24:03;99628.72;;;3.10;43.12
61906;BME280;47863;55.766;37.672;2024-03-08T08:26:29;99646.44;;;3.21;43.28
61906;BME280;47863;55.766;37.672;2024-03-08T08:28:55;99668.38;;;3.45;43.51
61906;BME280;47863;55.766;37.672;2024-03-08T08:31:21;99667.81;;;3.64;43.54
61906;BME280;47863;55.766;37.672;2024-03-08T08:33:46;99648.03;;;3.57;43.07
61906;BME280;47863;55.766;37.672;2024-03-08T08:36:14;99671.28;;;3.65;43.45
61906;BME280;47863;55.766;37.672;2024-03-08T08:38:40;99627.34;;;3.28;43.41
61906;BME280;47863;55.766;37.672;2024-03-08T08:41:12;99657.44;;;3.50;43.20
61906;BME280;47863;55.766;37.672;2024-03-08T08:43:38;99662.97;;;3.58;43.59
61906;BME280;47863;55.766;37.672;2024-03-08T08:46:04;99648.66;;;3.61;43.22
61906;BME280;47863;55.766;37.672;2024-03-08T08:48:30;99665.50;;;3.71;43.69
61906;BME280;47863;55.766;37.672;2024-03-08T08:50:56;99668.88;;;3.73;43.87
61906;BME280;47863;55.766;37.672;2024-03-08T08:53:22;99639.03;;;3.60;43.63
61906;BME280;47863;55.766;37.672;2024-03-08T08:55:47;99669.00;;;3.83;43.41
61906;BME280;47863;55.766;37.672;2024-03-08T08:58:13;99654.31;;;3.78;43.66
61906;BME280;47863;55.766;37.672;2024-03-08T09:00:39;99647.06;;;3.81;43.58
61906;BME280;47863;55.766;37.672;2024-03-08T09:03:05;99655.53;;;3.86;43.81
61906;BME280;47863;55.766;37.672;2024-03-08T09:05:32;99649.22;;;3.98;43.40
61906;BME280;47863;55.766;37.672;2024-03-08T09:07:59;99632.13;;;4.02;43.38
61906;BME280;47863;55.766;37.672;2024-03-08T09:10:26;99614.78;;;4.09;43.34
61906;BME280;47863;55.766;37.672;2024-03-08T09:12:53;99629.25;;;4.37;43.23
61906;BME280;47863;55.766;37.672;2024-03-08T09:15:19;99627.22;;;4.41;43.16
61906;BME280;47863;55.766;37.672;2024-03-08T09:17:46;99648.97;;;4.88;43.28
61906;BME280;47863;55.766;37.672;2024-03-08T09:20:13;99608.38;;;5.19;42.52
61906;BME280;47863;55.766;37.672;2024-03-08T09:22:43;99636.28;;;5.65;42.52
61906;BME280;47863;55.766;37.672;2024-03-08T09:25:09;99641.88;;;6.02;42.17
61906;BME280;47863;55.766;37.672;2024-03-08T09:27:35;99633.00;;;6.23;41.84
61906;BME280;47863;55.766;37.672;2024-03-08T09:30:01;99637.50;;;6.61;42.00
61906;BME280;47863;55.766;37.672;2024-03-08T09:32:30;99635.41;;;6.74;42.02
61906;BME280;47863;55.766;37.672;2024-03-08T09:34:55;99639.34;;;6.80;41.97
61906;BME280;47863;55.766;37.672;2024-03-08T09:37:21;99636.41;;;6.83;42.40
61906;BME280;47863;55.766;37.672;2024-03-08T09:39:48;99627.16;;;6.87;42.43
61906;BME280;47863;55.766;37.672;2024-03-08T09:42:15;99621.13;;;6.85;42.57
61906;BME280;47863;55.766;37.672;2024-03-08T09:44:45;99624.22;;;6.71;42.86
61906;BME280;47863;55.766;37.672;2024-03-08T09:47:14;99651.69;;;6.62;42.92
61906;BME280;47863;55.766;37.672;2024-03-08T09:49:41;99641.69;;;6.34;43.01
61906;BME280;47863;55.766;37.672;2024-03-08T09:52:07;99633.22;;;6.10;43.59
61906;BME280;47863;55.766;37.672;2024-03-08T09:54:33;99650.88;;;5.80;43.58
61906;BME280;47863;55.766;37.672;2024-03-08T09:56:59;99641.63;;;5.44;44.08
61906;BME280;47863;55.766;37.672;2024-03-08T09:59:25;99640.88;;;5.11;44.21
61906;BME280;47863;55.766;37.672;2024-03-08T10:02:15;99640.81;;;4.80;44.54
61906;BME280;47863;55.766;37.672;2024-03-08T10:04:41;99638.34;;;4.56;44.70
61906;BME280;47863;55.766;37.672;2024-03-08T10:07:07;99622.16;;;4.38;44.97
61906;BME280;47863;55.766;37.672;2024-03-08T10:09:33;99611.91;;;4.45;44.96
61906;BME280;47863;55.766;37.672;2024-03-08T10:11:59;99600.66;;;4.52;44.56
61906;BME280;47863;55.766;37.672;2024-03-08T10:14:27;99632.56;;;4.83;44.27
61906;BME280;47863;55.766;37.672;2024-03-08T10:16:53;99640.28;;;4.86;43.97
61906;BME280;47863;55.766;37.672;2024-03-08T10:19:20;99610.56;;;4.71;43.76
61906;BME280;47863;55.766;37.672;2024-03-08T10:21:49;99606.59;;;4.66;44.23
61906;BME280;47863;55.766;37.672;2024-03-08T10:24:15;99638.34;;;4.88;44.22
61906;BME280;47863;55.766;37.672;2024-03-08T10:26:40;99630.63;;;4.85;44.39
61906;BME280;47863;55.766;37.672;2024-03-08T10:29:09;99629.22;;;4.81;44.28
61906;BME280;47863;55.766;37.672;2024-03-08T10:31:34;99633.94;;;4.77;44.63
61906;BME280;47863;55.766;37.672;2024-03-08T10:34:01;99610.44;;;4.73;44.39
61906;BME280;47863;55.766;37.672;2024-03-08T10:36:28;99596.69;;;4.68;44.20
61906;BME280;47863;55.766;37.672;2024-03-08T10:38:56;99637.72;;;4.96;44.12
61906;BME280;47863;55.766;37.672;2024-03-08T10:41:24;99610.63;;;4.81;44.33
61906;BME280;47863;55.766;37.672;2024-03-08T10:46:30;99631.81;;;4.92;44.40
61906;BME280;47863;55.766;37.672;2024-03-08T10:48:57;99635.56;;;4.90;44.31
61906;BME280;47863;55.766;37.672;2024-03-08T10:51:29;99633.28;;;4.85;44.29
61906;BME280;47863;55.766;37.672;2024-03-08T10:53:57;99621.09;;;4.62;44.58
61906;BME280;47863;55.766;37.672;2024-03-08T10:56:24;99632.56;;;4.62;44.63
61906;BME280;47863;55.766;37.672;2024-03-08T10:58:54;99595.19;;;4.33;44.78
61906;BME280;47863;55.766;37.672;2024-03-08T11:01:21;99631.59;;;4.63;44.41
61906;BME280;47863;55.766;37.672;2024-03-08T11:03:47;99625.88;;;4.68;45.14
61906;BME280;47863;55.766;37.672;2024-03-08T11:06:29;99615.03;;;4.71;44.58
61906;BME280;47863;55.766;37.672;2024-03-08T11:08:55;99599.88;;;4.62;44.48
61906;BME280;47863;55.766;37.672;2024-03-08T11:11:30;99633.38;;;4.74;45.55
61906;BME280;47863;55.766;37.672;2024-03-08T11:13:58;99626.47;;;4.71;44.75
61906;BME280;47863;55.766;37.672;2024-03-08T11:19:44;99625.44;;;4.63;45.88
61906;BME280;47863;55.766;37.672;2024-03-08T11:21:57;99601.28;;;4.66;44.84
61906;BME280;47863;55.766;37.672;2024-03-08T11:24:23;99600.38;;;4.88;44.32
61906;BME280;47863;55.766;37.672;2024-03-08T11:26:49;99605.81;;;5.17;44.12
61906;BME280;47863;55.766;37.672;2024-03-08T11:32:21;99599.41;;;5.81;44.81
61906;BME280;47863;55.766;37.672;2024-03-08T11:34:49;99608.34;;;6.11;43.69
61906;BME280;47863;55.766;37.672;2024-03-08T11:37:20;99599.53;;;6.20;43.96
61906;BME280;47863;55.766;37.672;2024-03-08T11:39:50;99608.38;;;6.40;43.52
61906;BME280;47863;55.766;37.672;2024-03-08T11:42:17;99601.50;;;6.57;43.32
61906;BME280;47863;55.766;37.672;2024-03-08T11:44:44;99610.63;;;6.74;43.55
61906;BME280;47863;55.766;37.672;2024-03-08T11:47:14;99602.50;;;6.75;43.64
61906;BME280;47863;55.766;37.672;2024-03-08T11:49:40;99605.56;;;6.61;43.54
61906;BME280;47863;55.766;37.672;2024-03-08T11:52:16;99572.66;;;6.23;43.69
61906;BME280;47863;55.766;37.672;2024-03-08T11:54:52;99611.44;;;6.26;44.08
61906;BME280;47863;55.766;37.672;2024-03-08T11:57:23;99605.53;;;6.03;44.30
61906;BME280;47863;55.766;37.672;2024-03-08T11:59:52;99599.31;;;5.92;44.61
61906;BME280;47863;55.766;37.672;2024-03-08T12:02:18;99604.06;;;5.89;44.59
61906;BME280;47863;55.766;37.672;2024-03-08T12:04:45;99588.09;;;5.79;44.66
61906;BME280;47863;55.766;37.672;2024-03-08T12:07:13;99607.75;;;5.98;44.60
61906;BME280;47863;55.766;37.672;2024-03-08T12:09:42;99602.38;;;5.88;44.39
61906;BME280;47863;55.766;37.672;2024-03-08T12:12:12;99589.78;;;5.90;44.45
61906;BME280;47863;55.766;37.672;2024-03-08T12:14:38;99617.03;;;6.13;44.27
61906;BME280;47863;55.766;37.672;2024-03-08T12:17:04;99615.06;;;6.15;44.22
61906;BME280;47863;55.766;37.672;2024-03-08T12:19:31;99603.69;;;6.03;44.28
61906;BME280;47863;55.766;37.672;2024-03-08T12:21:56;99620.94;;;6.19;44.56
61906;BME280;47863;55.766;37.672;2024-03-08T12:24:22;99627.91;;;6.10;44.85
61906;BME280;47863;55.766;37.672;2024-03-08T12:26:48;99619.00;;;5.90;44.78
61906;BME280;47863;55.766;37.672;2024-03-08T12:29:27;99629.94;;;5.56;45.32
61906;BME280;47863;55.766;37.672;2024-03-08T12:31:55;99596.72;;;5.10;45.71
61906;BME280;47863;55.766;37.672;2024-03-08T12:34:24;99569.28;;;4.79;45.75
61906;BME280;47863;55.766;37.672;2024-03-08T12:36:51;99621.34;;;5.12;45.56
61906;BME280;47863;55.766;37.672;2024-03-08T12:39:20;99625.53;;;5.14;45.15
61906;BME280;47863;55.766;37.672;2024-03-08T12:41:53;99617.97;;;5.10;45.20
61906;BME280;47863;55.766;37.672;2024-03-08T12:44:20;99610.25;;;5.07;45.39
61906;BME280;47863;55.766;37.672;2024-03-08T12:46:50;99577.81;;;5.03;45.40
61906;BME280;47863;55.766;37.672;2024-03-08T12:49:17;99600.25;;;5.51;44.67
61906;BME280;47863;55.766;37.672;2024-03-08T12:51:48;99619.00;;;6.21;44.25
61906;BME280;47863;55.766;37.672;2024-03-08T12:54:14;99618.44;;;7.52;42.72
61906;BME280;47863;55.766;37.672;2024-03-08T12:56:40;99620.34;;;8.25;41.84
61906;BME280;47863;55.766;37.672;2024-03-08T12:59:07;99600.50;;;8.55;41.47
61906;BME280;47863;55.766;37.672;2024-03-08T13:01:34;99619.63;;;8.68;41.50
61906;BME280;47863;55.766;37.672;2024-03-08T13:04:03;99631.06;;;8.43;41.97